Time;durP1;ratioP1;P1;durP2;ratioP2;P2;SDS_P1;SDS_P2;PMS_P1;PMS_P2;Temp;Humidity;BMP_temperature;BMP_pressure;BME280_temperature;BME280_humidity;BME280_pressure;Samples;Min_cycle;Max_cycle;Signal;HPM_P1;HPM_P2
2023/10/02 00:05:07;;;;;;;0.70;0.70;;;15.90;99.90;;;;;;6253526;23;20729;-76
2023/10/02 00:07:37;;;;;;;0.60;0.60;;;15.90;99.90;;;;;;6253896;23;20467;-76
2023/10/02 00:10:05;;;;;;;0.60;0.60;;;15.90;99.90;;;;;;6227176;23;20471;-76
2023/10/02 00:12:34;;;;;;;1.27;1.27;;;15.90;99.90;;;;;;6253405;23;20367;-77
2023/10/02 00:15:12;;;;;;;0.70;0.70;;;15.80;99.90;;;;;;6253200;23;20393;-75
2023/10/02 00:17:43;;;;;;;3.07;1.73;;;15.80;99.90;;;;;;6253212;23;20373;-78
2023/10/02 00:20:21;;;;;;;1.30;1.30;;;15.80;99.90;;;;;;6254198;23;20374;-77
2023/10/02 00:22:50;;;;;;;7.40;1.13;;;15.80;99.90;;;;;;6253847;23;20356;-75
2023/10/02 00:25:20;;;;;;;1.20;1.20;;;15.90;99.90;;;;;;6227166;23;20603;-76
2023/10/02 00:27:51;;;;;;;1.37;1.37;;;15.90;99.90;;;;;;6252189;23;20650;-76
2023/10/02 00:30:22;;;;;;;1.30;1.30;;;15.80;99.90;;;;;;6250038;23;20377;-76
2023/10/02 00:32:50;;;;;;;1.30;1.30;;;15.90;99.90;;;;;;6245749;23;20397;-76
2023/10/02 00:35:18;;;;;;;0.70;0.70;;;15.90;99.90;;;;;;6249754;23;20396;-76
2023/10/02 00:37:44;;;;;;;3.80;2.80;;;15.90;99.90;;;;;;6251599;23;20425;-76
2023/10/02 00:40:20;;;;;;;1.33;1.33;;;15.90;99.90;;;;;;6251657;23;20364;-76
2023/10/02 00:42:49;;;;;;;0.93;0.93;;;15.90;99.90;;;;;;6251785;23;20373;-78
2023/10/02 00:45:18;;;;;;;0.60;0.60;;;15.90;99.90;;;;;;6252290;23;20420;-76
2023/10/02 00:47:46;;;;;;;0.60;0.60;;;15.90;99.90;;;;;;6226804;23;20396;-76
2023/10/02 00:50:21;;;;;;;1.30;1.30;;;15.90;99.90;;;;;;6253503;23;20389;-76
2023/10/02 00:53:00;;;;;;;1.17;1.17;;;16.00;99.90;;;;;;6253504;23;20368;-77
2023/10/02 00:55:35;;;;;;;0.90;0.90;;;16.00;99.90;;;;;;6227086;23;20400;-77
2023/10/02 00:58:04;;;;;;;2.20;1.80;;;16.00;99.90;;;;;;6252763;23;20648;-76
2023/10/02 01:00:36;;;;;;;2.33;1.07;;;15.90;99.90;;;;;;6253517;23;20416;-76
2023/10/02 01:03:14;;;;;;;1.00;1.00;;;15.90;99.90;;;;;;6253931;23;20386;-75
2023/10/02 01:05:42;;;;;;;0.60;0.60;;;15.90;99.90;;;;;;6227148;23;20373;-76
2023/10/02 01:08:23;;;;;;;0.87;0.87;;;15.90;99.90;;;;;;6253729;23;20370;-75
2023/10/02 01:10:59;;;;;;;1.00;1.00;;;16.10;99.90;;;;;;6253785;23;20444;-75
2023/10/02 01:13:34;;;;;;;0.60;0.60;;;15.90;99.90;;;;;;6227054;23;20373;-76
2023/10/02 01:16:08;;;;;;;0.93;0.93;;;16.00;99.90;;;;;;6253604;23;20447;-75
2023/10/02 01:18:39;;;;;;;1.30;1.20;;;15.90;99.90;;;;;;6252893;23;20413;-77
2023/10/02 01:21:11;;;;;;;2.07;1.97;;;15.90;99.90;;;;;;6253296;23;20405;-76
2023/10/02 01:24:07;;;;;;;1.10;1.10;;;15.90;99.90;;;;;;6254616;23;20458;-78
2023/10/02 01:26:41;;;;;;;0.60;0.60;;;15.90;99.90;;;;;;6256003;23;20340;-77
2023/10/02 01:29:13;;;;;;;1.53;1.43;;;16.00;99.90;;;;;;6255625;23;20382;-76
2023/10/02 01:31:51;;;;;;;1.67;1.60;;;16.00;99.90;;;;;;6228448;23;20416;-76
2023/10/02 01:34:39;;;;;;;1.00;1.00;;;16.00;99.90;;;;;;6254062;23;20407;-76
2023/10/02 01:37:32;;;;;;;0.80;0.80;;;15.90;99.90;;;;;;6254464;23;20446;-77
2023/10/02 01:40:28;;;;;;;0.70;0.70;;;15.90;99.90;;;;;;6254263;23;20406;-76
2023/10/02 01:42:43;;;;;;;0.70;0.70;;;16.00;99.90;;;;;;6255360;23;20567;-77
2023/10/02 01:45:11;;;;;;;0.60;0.60;;;16.00;99.90;;;;;;6254728;23;20364;-77
2023/10/02 01:47:41;;;;;;;1.03;1.03;;;16.00;99.90;;;;;;6255246;23;20375;-76
2023/10/02 01:50:09;;;;;;;0.70;0.70;;;16.00;99.90;;;;;;6254772;23;20756;-76
2023/10/02 01:52:37;;;;;;;0.90;0.90;;;16.00;99.90;;;;;;6254648;23;20398;-76
2023/10/02 01:55:29;;;;;;;1.00;1.00;;;16.00;99.90;;;;;;6254845;23;20620;-77
2023/10/02 01:58:16;;;;;;;1.20;1.10;;;16.00;99.90;;;;;;6229020;23;20370;-77
2023/10/02 02:00:45;;;;;;;1.27;1.17;;;16.00;99.90;;;;;;6255736;23;20358;-76
2023/10/02 02:03:15;;;;;;;1.07;1.07;;;16.00;99.90;;;;;;6255658;23;20699;-77
2023/10/02 02:05:46;;;;;;;0.70;0.70;;;16.00;99.90;;;;;;6257069;23;20385;-76
2023/10/02 02:08:23;;;;;;;0.60;0.60;;;16.00;99.90;;;;;;6256352;23;20424;-76
2023/10/02 02:10:54;;;;;;;0.60;0.60;;;16.00;99.90;;;;;;6256636;23;20536;-75
2023/10/02 02:13:22;;;;;;;2.80;2.70;;;16.00;99.90;;;;;;6255337;23;20356;-76
2023/10/02 02:16:07;;;;;;;1.23;1.23;;;16.00;99.90;;;;;;6256967;23;20389;-76
2023/10/02 02:18:34;;;;;;;0.80;0.80;;;16.00;99.90;;;;;;6254902;23;20455;-76
2023/10/02 02:21:02;;;;;;;0.60;0.60;;;16.00;99.90;;;;;;6254854;23;20471;-76
2023/10/02 02:23:31;;;;;;;1.13;1.13;;;16.00;99.90;;;;;;6254249;23;20393;-76
2023/10/02 02:25:59;;;;;;;1.80;1.70;;;16.00;99.90;;;;;;6254956;23;20389;-77
2023/10/02 02:28:28;;;;;;;0.70;0.70;;;16.00;99.90;;;;;;6254590;23;20495;-76
2023/10/02 02:30:55;;;;;;;1.80;1.80;;;16.00;99.90;;;;;;6254797;23;20444;-76
2023/10/02 02:33:35;;;;;;;0.70;0.70;;;16.00;99.90;;;;;;6254177;23;20368;-76
2023/10/02 02:36:05;;;;;;;1.93;1.83;;;16.00;99.90;;;;;;6254399;23;20370;-74
2023/10/02 02:38:36;;;;;;;0.67;0.67;;;16.00;99.90;;;;;;6254667;23;20576;-76
2023/10/02 02:41:07;;;;;;;3.73;3.27;;;16.00;99.90;;;;;;6254463;23;20570;-77
2023/10/02 02:43:37;;;;;;;0.73;0.73;;;16.10;99.90;;;;;;6254540;23;20443;-76
2023/10/02 02:46:06;;;;;;;1.57;1.47;;;16.00;99.90;;;;;;6254813;23;20717;-77
2023/10/02 02:48:43;;;;;;;1.50;1.40;;;16.00;99.90;;;;;;6258324;23;20443;-77
2023/10/02 02:51:23;;;;;;;1.00;0.97;;;16.00;99.90;;;;;;6261071;23;20434;-76
2023/10/02 02:53:51;;;;;;;0.60;0.60;;;16.00;99.90;;;;;;6262894;23;20374;-77
2023/10/02 02:56:22;;;;;;;0.70;0.70;;;15.90;99.90;;;;;;6267981;23;20420;-77
2023/10/02 02:58:52;;;;;;;3.90;2.70;;;15.90;99.90;;;;;;6274097;22;20444;-77
2023/10/02 03:01:24;;;;;;;3.20;2.80;;;15.90;99.90;;;;;;6273826;22;20472;-78
2023/10/02 03:03:55;;;;;;;1.13;1.13;;;15.90;99.90;;;;;;6268226;23;20405;-77
2023/10/02 03:06:24;;;;;;;0.70;0.70;;;16.00;99.90;;;;;;6261987;23;20381;-78
2023/10/02 03:08:52;;;;;;;0.90;0.90;;;15.90;99.90;;;;;;6254631;23;20416;-76
2023/10/02 03:11:28;;;;;;;1.37;1.37;;;16.00;99.90;;;;;;6254732;23;20455;-76
2023/10/02 03:14:14;;;;;;;1.73;1.63;;;15.90;99.90;;;;;;6255315;23;20400;-77
2023/10/02 03:16:51;;;;;;;0.80;0.80;;;15.90;99.90;;;;;;6254766;23;20373;-76
2023/10/02 03:19:19;;;;;;;0.80;0.80;;;16.00;99.90;;;;;;6253939;23;20451;-77
2023/10/02 03:21:47;;;;;;;1.13;1.13;;;16.00;99.90;;;;;;6225167;23;20393;-76
2023/10/02 03:24:18;;;;;;;1.43;1.33;;;16.00;99.90;;;;;;6253117;23;20590;-76
2023/10/02 03:26:52;;;;;;;6.53;1.63;;;16.00;99.90;;;;;;6253874;23;20416;-77
2023/10/02 03:29:22;;;;;;;0.80;0.80;;;16.10;99.90;;;;;;6249243;23;20530;-76
2023/10/02 03:31:49;;;;;;;0.90;0.90;;;16.00;99.90;;;;;;6221591;23;20397;-76
2023/10/02 03:34:29;;;;;;;1.40;1.37;;;16.00;99.90;;;;;;6246425;23;20401;-76
2023/10/02 03:39:51;;;;;;;1.70;1.60;;;16.00;99.90;;;;;;6253259;23;20416;-75
2023/10/02 03:42:22;;;;;;;0.63;0.63;;;15.80;99.90;;;;;;6253272;23;20360;-76
2023/10/02 03:44:53;;;;;;;1.37;1.30;;;16.00;99.90;;;;;;6254012;23;20420;-76
2023/10/02 03:47:22;;;;;;;7.20;1.73;;;15.90;99.90;;;;;;6252992;23;20898;-76
2023/10/02 03:49:50;;;;;;;0.80;0.80;;;16.00;99.90;;;;;;6226895;23;20977;-75
2023/10/02 03:52:17;;;;;;;0.80;0.80;;;16.00;99.90;;;;;;6253389;23;20644;-77
2023/10/02 03:54:45;;;;;;;0.90;0.90;;;15.90;99.90;;;;;;6253532;23;20379;-77
2023/10/02 03:57:37;;;;;;;0.83;0.83;;;16.00;99.90;;;;;;6252698;23;20871;-76
2023/10/02 04:00:22;;;;;;;1.60;1.50;;;15.90;99.90;;;;;;6252588;23;20410;-76
2023/10/02 04:02:51;;;;;;;0.80;0.80;;;15.90;99.90;;;;;;6253264;23;20396;-76
2023/10/02 04:05:31;;;;;;;1.00;1.00;;;16.00;99.90;;;;;;6252646;23;20416;-76
2023/10/02 04:08:14;;;;;;;4.20;3.83;;;16.00;99.90;;;;;;6253198;23;20374;-76
2023/10/02 04:11:01;;;;;;;0.70;0.70;;;16.00;99.90;;;;;;6253392;23;20366;-76
2023/10/02 04:13:34;;;;;;;1.13;1.13;;;16.00;99.90;;;;;;6252890;23;20407;-76
2023/10/02 04:18:59;;;;;;;1.27;1.23;;;16.00;99.90;;;;;;6251428;23;20399;-77
2023/10/02 04:21:28;;;;;;;1.00;1.00;;;16.00;99.90;;;;;;6249475;23;20381;-77
2023/10/02 04:23:56;;;;;;;1.73;1.63;;;16.00;99.90;;;;;;6247831;23;20428;-77
2023/10/02 04:26:28;;;;;;;0.60;0.60;;;16.00;99.90;;;;;;6247837;23;20429;-77
2023/10/02 04:32:19;;;;;;;1.60;1.37;;;16.00;99.90;;;;;;6218886;23;20405;-75
2023/10/02 04:34:46;;;;;;;0.90;0.90;;;16.00;99.90;;;;;;6253406;23;20606;-75
2023/10/02 04:37:20;;;;;;;0.90;0.90;;;16.00;99.90;;;;;;6252432;23;20393;-76
2023/10/02 04:39:52;;;;;;;0.70;0.70;;;16.00;99.90;;;;;;6252974;23;20442;-76
2023/10/02 04:42:22;;;;;;;1.10;1.10;;;16.00;99.90;;;;;;6252507;23;20355;-78
2023/10/02 04:44:56;;;;;;;1.67;1.67;;;16.10;99.90;;;;;;6253137;23;20344;-76
2023/10/02 04:47:27;;;;;;;2.83;2.73;;;16.10;99.90;;;;;;6252952;23;21200;-76
2023/10/02 04:52:58;;;;;;;1.37;1.37;;;16.00;99.90;;;;;;6252142;23;20478;-75
2023/10/02 04:55:31;;;;;;;18.30;3.73;;;16.10;99.90;;;;;;6250988;23;20413;-76
2023/10/02 04:58:08;;;;;;;1.03;1.03;;;16.00;99.90;;;;;;6253836;23;20437;-75
2023/10/02 05:00:38;;;;;;;2.80;2.60;;;16.10;99.90;;;;;;6254851;23;20474;-75
2023/10/02 05:03:09;;;;;;;1.10;1.10;;;16.20;99.90;;;;;;6254613;23;20370;-76
2023/10/02 05:05:47;;;;;;;1.13;1.00;;;16.20;99.90;;;;;;6254890;23;20428;-76
2023/10/02 05:08:34;;;;;;;1.57;1.50;;;16.30;99.90;;;;;;6254212;23;20388;-76
2023/10/02 05:11:07;;;;;;;2.27;2.17;;;16.20;99.90;;;;;;6253716;23;20377;-77
2023/10/02 05:13:59;;;;;;;1.23;1.23;;;16.20;99.90;;;;;;6254888;23;20365;-76
2023/10/02 05:16:38;;;;;;;2.50;2.30;;;16.20;99.90;;;;;;6254681;23;20369;-75
2023/10/02 05:19:07;;;;;;;1.37;1.30;;;16.30;99.90;;;;;;6255102;23;20420;-76
2023/10/02 05:21:49;;;;;;;1.50;1.40;;;16.30;99.90;;;;;;6254823;23;20389;-76
2023/10/02 05:24:18;;;;;;;7.30;2.63;;;16.30;99.90;;;;;;6255106;23;20348;-75
2023/10/02 05:26:46;;;;;;;0.70;0.70;;;16.40;99.90;;;;;;6254577;23;20403;-76
2023/10/02 05:29:36;;;;;;;1.53;1.53;;;16.40;99.90;;;;;;6253986;23;20617;-77
2023/10/02 05:32:19;;;;;;;0.80;0.80;;;16.40;99.90;;;;;;6254447;23;20355;-77
2023/10/02 05:35:03;;;;;;;1.77;1.63;;;16.50;99.90;;;;;;6254647;23;20377;-76
2023/10/02 05:37:42;;;;;;;1.27;1.27;;;16.50;99.90;;;;;;6254263;23;20348;-76
2023/10/02 05:48:15;;;;;;;1.70;1.60;;;16.70;99.90;;;;;;6253652;23;20380;-76
2023/10/02 05:50:47;;;;;;;0.70;0.70;;;16.70;99.90;;;;;;6254557;23;20590;-75
2023/10/02 05:53:15;;;;;;;1.10;1.10;;;16.70;99.90;;;;;;6227237;23;20389;-75
2023/10/02 05:58:32;;;;;;;1.00;1.00;;;16.80;99.90;;;;;;6254695;23;20381;-76
2023/10/02 06:01:05;;;;;;;0.60;0.60;;;16.80;99.90;;;;;;6255497;23;20432;-76
2023/10/02 06:03:36;;;;;;;1.43;1.33;;;17.00;99.90;;;;;;6253893;23;20966;-75
2023/10/02 06:06:18;;;;;;;0.60;0.60;;;17.00;99.90;;;;;;6253670;23;20435;-76
2023/10/02 06:08:49;;;;;;;0.80;0.80;;;16.90;99.90;;;;;;6253791;23;20597;-77
2023/10/02 06:11:26;;;;;;;1.00;1.00;;;17.00;99.90;;;;;;6253485;23;20392;-77
2023/10/02 06:14:09;;;;;;;0.90;0.90;;;16.90;99.90;;;;;;6227290;23;20381;-76
2023/10/02 06:16:39;;;;;;;2.00;1.90;;;17.00;99.90;;;;;;6253617;23;20380;-75
2023/10/02 06:19:13;;;;;;;0.70;0.70;;;16.90;99.90;;;;;;6227256;23;20417;-76
2023/10/02 06:24:27;;;;;;;0.67;0.67;;;17.20;99.90;;;;;;6252866;23;20694;-77
2023/10/02 06:27:05;;;;;;;4.43;1.73;;;17.40;99.90;;;;;;6253246;23;20415;-76
2023/10/02 06:29:37;;;;;;;0.60;0.60;;;17.60;99.90;;;;;;6253255;23;20395;-76
2023/10/02 06:32:09;;;;;;;1.23;1.23;;;17.70;99.90;;;;;;6253146;23;20377;-77
2023/10/02 06:34:39;;;;;;;0.70;0.70;;;17.70;99.90;;;;;;6252570;23;20448;-77
2023/10/02 06:37:11;;;;;;;0.97;0.97;;;17.70;99.90;;;;;;6253472;23;20705;-76
2023/10/02 06:39:41;;;;;;;1.30;1.30;;;17.80;99.90;;;;;;6253643;23;20388;-77
2023/10/02 06:42:15;;;;;;;1.00;1.00;;;17.90;99.90;;;;;;6253702;23;20382;-76
2023/10/02 06:44:52;;;;;;;0.97;0.97;;;18.00;99.90;;;;;;6253718;23;20360;-77
2023/10/02 06:47:22;;;;;;;1.63;1.53;;;18.00;99.90;;;;;;6254110;23;20360;-79
2023/10/02 06:49:51;;;;;;;0.90;0.90;;;18.20;99.90;;;;;;6254551;23;20370;-75
2023/10/02 06:52:19;;;;;;;1.87;1.77;;;18.30;99.90;;;;;;6254043;23;20684;-79
2023/10/02 06:54:55;;;;;;;1.47;1.37;;;18.50;99.90;;;;;;6254247;23;20703;-76
2023/10/02 06:57:26;;;;;;;1.20;1.20;;;18.60;99.90;;;;;;6254200;23;20373;-76
2023/10/02 06:59:53;;;;;;;1.93;1.83;;;18.70;99.90;;;;;;6254379;23;20399;-77
2023/10/02 07:02:26;;;;;;;0.97;0.97;;;18.90;99.90;;;;;;6253442;23;20375;-78
2023/10/02 07:04:55;;;;;;;0.90;0.90;;;19.20;99.90;;;;;;6253620;23;20378;-79
2023/10/02 07:07:26;;;;;;;41.43;1.47;;;19.30;99.90;;;;;;6227383;23;20394;-76
2023/10/02 07:09:55;;;;;;;1.50;1.40;;;19.40;99.90;;;;;;6253987;23;20729;-78
2023/10/02 07:12:27;;;;;;;1.23;1.23;;;19.50;99.90;;;;;;6254429;23;20379;-80
2023/10/02 07:15:10;;;;;;;1.43;1.33;;;19.70;99.90;;;;;;6255016;23;20406;-76
2023/10/02 07:17:47;;;;;;;2.43;2.33;;;19.70;99.90;;;;;;6254948;23;20351;-76
2023/10/02 07:20:20;;;;;;;0.80;0.80;;;19.80;99.90;;;;;;6254932;23;20399;-77
2023/10/02 07:22:51;;;;;;;1.23;1.23;;;20.10;99.90;;;;;;6259949;23;20362;-80
2023/10/02 07:25:24;;;;;;;1.00;1.00;;;20.30;99.90;;;;;;6263395;23;20363;-76
2023/10/02 07:27:52;;;;;;;0.87;0.87;;;21.40;99.90;;;;;;6264529;23;20368;-80
2023/10/02 07:30:25;;;;;;;1.10;1.10;;;22.30;99.90;;;;;;6232434;23;20558;-78
2023/10/02 07:32:54;;;;;;;1.73;1.63;;;22.70;99.90;;;;;;6254992;23;20373;-77
2023/10/02 07:35:24;;;;;;;1.40;1.30;;;22.70;99.90;;;;;;6254406;23;20489;-78
2023/10/02 07:38:00;;;;;;;0.90;0.90;;;22.50;99.90;;;;;;6254486;23;20423;-78
2023/10/02 07:40:46;;;;;;;1.43;1.33;;;23.00;99.90;;;;;;6253752;23;20546;-78
2023/10/02 07:43:18;;;;;;;1.27;1.27;;;22.70;99.90;;;;;;6231548;23;20415;-79
2023/10/02 07:46:01;;;;;;;0.93;0.93;;;22.50;99.90;;;;;;6227956;23;20432;-80
2023/10/02 07:48:36;;;;;;;1.23;1.20;;;22.40;99.90;;;;;;6253873;23;20419;-77
2023/10/02 07:51:09;;;;;;;1.83;1.73;;;22.80;99.90;;;;;;6253608;23;20381;-77
2023/10/02 07:53:39;;;;;;;1.00;1.00;;;23.50;99.90;;;;;;6260479;23;20415;-78
2023/10/02 07:56:14;;;;;;;2.20;1.10;;;24.20;99.90;;;;;;6232258;23;20391;-78
2023/10/02 07:58:43;;;;;;;1.17;1.17;;;25.40;99.90;;;;;;6260269;23;20537;-78
2023/10/02 08:01:12;;;;;;;2.43;2.33;;;25.40;99.40;;;;;;6254627;23;20433;-79
2023/10/02 08:03:44;;;;;;;0.90;0.90;;;26.00;98.30;;;;;;6252398;23;20745;-78
2023/10/02 08:06:21;;;;;;;1.30;1.23;;;26.80;97.60;;;;;;6253818;23;20376;-78
2023/10/02 08:11:41;;;;;;;2.50;1.30;;;27.40;95.30;;;;;;6253298;23;20376;-79
2023/10/02 08:14:34;;;;;;;1.10;1.10;;;27.10;93.80;;;;;;6255479;23;20395;-78
2023/10/02 08:16:59;;;;;;;1.73;1.63;;;26.90;94.10;;;;;;6253720;23;20404;-79
2023/10/02 08:19:28;;;;;;;1.40;1.30;;;26.70;93.70;;;;;;6253121;23;20379;-78
2023/10/02 08:21:55;;;;;;;1.30;1.30;;;27.60;93.10;;;;;;6226976;23;20562;-78
2023/10/02 08:24:22;;;;;;;1.67;1.57;;;27.80;92.50;;;;;;6253130;23;20401;-80
2023/10/02 08:26:54;;;;;;;1.30;1.30;;;28.00;91.70;;;;;;6227620;23;20443;-80
2023/10/02 08:29:21;;;;;;;1.73;1.63;;;28.40;91.90;;;;;;6253135;23;20435;-80
2023/10/02 08:31:49;;;;;;;1.00;1.00;;;29.00;90.00;;;;;;6228952;23;20403;-77
2023/10/02 08:34:20;;;;;;;1.20;1.20;;;28.50;87.80;;;;;;6255476;23;20421;-80
2023/10/02 08:37:04;;;;;;;1.20;1.20;;;29.20;87.80;;;;;;6257261;23;20757;-78
2023/10/02 08:39:33;;;;;;;1.23;1.20;;;29.60;86.10;;;;;;6256129;23;20373;-77
2023/10/02 08:42:10;;;;;;;1.53;1.43;;;29.30;84.90;;;;;;6256182;23;20408;-78
2023/10/02 08:44:40;;;;;;;1.30;1.30;;;29.80;83.80;;;;;;6255493;23;20372;-78
2023/10/02 08:47:11;;;;;;;1.93;1.77;;;29.90;81.00;;;;;;6256343;23;20392;-78
2023/10/02 08:49:40;;;;;;;1.70;1.60;;;29.90;81.20;;;;;;6256884;23;20554;-80
2023/10/02 08:52:11;;;;;;;1.37;1.33;;;29.80;79.20;;;;;;6256582;23;20392;-80
2023/10/02 08:54:39;;;;;;;1.60;1.50;;;29.50;78.40;;;;;;6256469;23;20415;-78
2023/10/02 08:57:08;;;;;;;2.23;2.13;;;28.30;80.60;;;;;;6230055;23;20401;-78
2023/10/02 08:59:40;;;;;;;1.37;1.27;;;27.30;82.50;;;;;;6254794;23;20400;-80
2023/10/02 09:02:16;;;;;;;1.20;1.20;;;26.80;85.50;;;;;;6255381;23;20372;-80
2023/10/02 09:04:53;;;;;;;1.30;1.30;;;27.20;86.10;;;;;;6255495;23;20598;-79
2023/10/02 09:07:44;;;;;;;1.20;1.20;;;27.80;83.00;;;;;;6254726;23;20375;-78
2023/10/02 09:13:16;;;;;;;1.00;1.00;;;27.10;86.40;;;;;;6254632;23;20375;-77
2023/10/02 09:15:48;;;;;;;1.97;1.87;;;26.70;86.80;;;;;;6228513;23;20377;-78
2023/10/02 09:18:33;;;;;;;1.00;1.00;;;26.70;86.40;;;;;;6254929;23;20373;-78
2023/10/02 09:21:15;;;;;;;2.47;2.33;;;26.10;87.10;;;;;;6254142;23;20413;-81
2023/10/02 09:23:52;;;;;;;0.90;0.90;;;26.20;89.20;;;;;;6257416;23;20379;-78
2023/10/02 09:26:24;;;;;;;1.97;1.80;;;26.00;88.10;;;;;;6229634;23;20721;-80
2023/10/02 09:28:58;;;;;;;1.40;1.40;;;26.10;88.30;;;;;;6256784;23;20369;-80
2023/10/02 09:31:30;;;;;;;1.60;1.50;;;26.10;87.70;;;;;;6229560;23;20390;-76
2023/10/02 09:34:10;;;;;;;2.53;2.37;;;25.90;87.50;;;;;;6255914;23;20380;-77
2023/10/02 09:37:11;;;;;;;1.10;1.10;;;25.90;87.70;;;;;;6233217;23;20389;-77
2023/10/02 09:40:00;;;;;;;1.93;1.60;;;25.50;89.40;;;;;;6254957;23;20428;-79
2023/10/02 09:42:30;;;;;;;1.67;1.57;;;25.70;88.40;;;;;;6254053;23;20463;-78
2023/10/02 09:45:08;;;;;;;1.00;1.00;;;25.50;89.90;;;;;;6256229;23;20381;-80
2023/10/02 09:47:35;;;;;;;0.90;0.90;;;25.60;87.90;;;;;;6256098;23;20373;-79
2023/10/02 09:50:26;;;;;;;3.37;3.07;;;25.50;90.00;;;;;;6255930;23;20721;-77
2023/10/02 09:53:00;;;;;;;0.90;0.90;;;25.40;88.80;;;;;;6254433;23;20713;-79
2023/10/02 09:55:51;;;;;;;1.00;1.00;;;25.50;89.30;;;;;;6254621;23;20680;-80
2023/10/02 09:58:26;;;;;;;1.00;1.00;;;25.40;89.00;;;;;;6228324;23;20373;-78
2023/10/02 10:01:34;;;;;;;1.27;1.17;;;25.30;89.20;;;;;;6254627;23;20421;-77
2023/10/02 10:04:08;;;;;;;1.20;1.20;;;25.40;89.50;;;;;;6254484;23;20904;-77
2023/10/02 10:06:59;;;;;;;1.33;1.33;;;25.40;90.20;;;;;;6254553;23;20352;-81
2023/10/02 10:09:34;;;;;;;0.90;0.90;;;25.50;90.50;;;;;;6253855;23;20696;-78
2023/10/02 10:12:21;;;;;;;1.03;1.03;;;25.40;90.10;;;;;;6253715;23;20411;-77
2023/10/02 10:14:54;;;;;;;1.27;1.17;;;25.30;90.30;;;;;;6254270;23;20401;-77
2023/10/02 10:17:21;;;;;;;0.80;0.80;;;25.10;90.80;;;;;;6253963;23;20377;-77
2023/10/02 10:20:08;;;;;;;0.90;0.90;;;25.20;91.20;;;;;;6254206;23;20475;-80
2023/10/02 10:22:39;;;;;;;3.43;2.70;;;25.20;91.20;;;;;;6254502;23;20385;-78
2023/10/02 10:27:39;;;;;;;0.90;0.90;;;25.00;90.80;;;;;;6254258;23;20349;-77
2023/10/02 10:30:24;;;;;;;1.40;1.30;;;24.90;90.50;;;;;;6253943;23;20394;-78
2023/10/02 10:33:01;;;;;;;1.10;1.10;;;24.90;91.20;;;;;;6254019;23;20665;-76
2023/10/02 10:35:33;;;;;;;2.00;1.90;;;25.20;90.90;;;;;;6253713;23;20388;-77
2023/10/02 10:38:04;;;;;;;2.20;1.67;;;25.10;91.10;;;;;;6253968;23;20402;-75
2023/10/02 10:40:59;;;;;;;1.33;1.30;;;25.30;91.30;;;;;;6227048;23;20791;-80
2023/10/02 10:46:16;;;;;;;1.20;1.10;;;25.30;91.40;;;;;;6253941;23;20353;-78
2023/10/02 10:48:58;;;;;;;1.00;1.00;;;25.30;91.40;;;;;;6254161;23;20598;-80
2023/10/02 10:51:33;;;;;;;1.80;1.70;;;25.10;91.00;;;;;;6254142;23;20725;-76
2023/10/02 10:54:18;;;;;;;0.97;0.97;;;25.20;91.30;;;;;;6254083;23;20394;-80
2023/10/02 10:57:19;;;;;;;1.57;1.47;;;25.30;90.80;;;;;;6254697;23;20400;-78
2023/10/02 10:59:47;;;;;;;1.00;1.00;;;25.20;91.30;;;;;;6253473;23;20406;-79
2023/10/02 11:02:15;;;;;;;1.00;1.00;;;25.20;91.20;;;;;;6253702;23;20429;-78
2023/10/02 11:04:49;;;;;;;1.60;1.50;;;25.30;91.10;;;;;;6253718;23;20400;-78
2023/10/02 11:07:23;;;;;;;2.97;1.60;;;25.10;91.00;;;;;;6253064;23;20435;-77
2023/10/02 11:10:14;;;;;;;1.07;1.07;;;25.20;90.60;;;;;;6253454;23;20431;-78
2023/10/02 11:12:38;;;;;;;3.13;1.83;;;25.00;90.40;;;;;;6253150;23;20392;-79
2023/10/02 11:15:28;;;;;;;3.37;1.47;;;25.00;90.70;;;;;;6253102;23;20436;-79
2023/10/02 11:18:26;;;;;;;1.33;1.30;;;25.10;90.90;;;;;;6252923;23;20377;-77
2023/10/02 11:20:59;;;;;;;0.90;0.90;;;25.10;91.00;;;;;;6251902;23;20476;-79
2023/10/02 11:23:40;;;;;;;1.60;1.50;;;25.00;90.60;;;;;;6252592;23;20435;-79
2023/10/02 11:26:12;;;;;;;1.63;1.37;;;25.10;90.90;;;;;;6254421;23;20376;-81
2023/10/02 11:28:49;;;;;;;1.30;1.30;;;25.20;91.10;;;;;;6254105;23;20536;-79
2023/10/02 11:31:35;;;;;;;1.53;1.47;;;25.20;90.40;;;;;;6253668;23;20723;-78
2023/10/02 11:34:04;;;;;;;2.17;1.97;;;25.10;90.80;;;;;;6253709;23;20344;-77
2023/10/02 11:36:54;;;;;;;1.27;1.20;;;25.50;90.90;;;;;;6254171;23;20364;-78
2023/10/02 11:39:27;;;;;;;2.60;1.43;;;25.30;89.30;;;;;;6228271;23;20361;-80
2023/10/02 11:41:55;;;;;;;3.00;2.80;;;25.20;90.10;;;;;;6255934;23;20417;-78
2023/10/02 11:44:22;;;;;;;1.60;1.50;;;25.20;90.50;;;;;;6234261;23;20393;-79
2023/10/02 11:46:49;;;;;;;1.27;1.27;;;25.30;90.20;;;;;;6255950;23;20364;-80
2023/10/02 11:49:17;;;;;;;0.97;0.97;;;25.30;90.60;;;;;;6258473;23;20389;-80
2023/10/02 11:51:45;;;;;;;1.10;1.10;;;25.30;90.50;;;;;;6265921;23;20389;-79
2023/10/02 11:54:13;;;;;;;1.00;1.00;;;25.00;90.10;;;;;;6240061;23;20385;-79
2023/10/02 11:56:42;;;;;;;0.90;0.90;;;25.00;90.80;;;;;;6261831;23;20385;-79
2023/10/02 11:59:14;;;;;;;1.30;1.30;;;25.10;90.90;;;;;;6253399;23;20420;-80
2023/10/02 12:01:45;;;;;;;0.90;0.90;;;25.10;91.10;;;;;;6254415;23;20417;-77
2023/10/02 12:04:12;;;;;;;1.00;1.00;;;25.20;90.50;;;;;;6254120;23;20426;-77
2023/10/02 12:06:39;;;;;;;1.67;1.57;;;25.20;90.70;;;;;;6253229;23;20406;-79
2023/10/02 12:09:07;;;;;;;0.80;0.80;;;25.00;90.30;;;;;;6253199;23;20716;-77
2023/10/02 12:11:34;;;;;;;0.97;0.97;;;24.80;90.80;;;;;;6253428;23;20367;-78
2023/10/02 12:14:04;;;;;;;1.70;1.60;;;24.90;91.20;;;;;;6253049;23;20363;-76
2023/10/02 12:16:32;;;;;;;0.90;0.90;;;25.00;91.20;;;;;;6253101;23;20485;-79
2023/10/02 12:18:58;;;;;;;1.30;1.30;;;25.00;89.80;;;;;;6253030;23;20472;-79
2023/10/02 12:21:26;;;;;;;0.90;0.90;;;25.10;90.10;;;;;;6226419;23;20729;-77
2023/10/02 12:23:53;;;;;;;0.80;0.80;;;25.10;89.70;;;;;;6252853;23;20664;-79
2023/10/02 12:26:20;;;;;;;0.90;0.90;;;25.00;87.80;;;;;;6254385;23;20460;-79
2023/10/02 12:28:47;;;;;;;1.50;1.40;;;25.10;89.00;;;;;;6227004;23;20546;-80
2023/10/02 12:31:16;;;;;;;1.10;1.10;;;25.30;89.20;;;;;;6253250;23;20429;-77
2023/10/02 12:33:44;;;;;;;0.90;0.90;;;25.30;88.50;;;;;;6253361;23;20447;-78
2023/10/02 12:36:17;;;;;;;0.90;0.90;;;25.40;88.50;;;;;;6227073;23;20392;-79
2023/10/02 12:38:45;;;;;;;1.10;1.10;;;25.50;86.90;;;;;;6253395;23;20367;-78
2023/10/02 12:41:17;;;;;;;1.43;1.33;;;25.40;87.80;;;;;;6253418;23;20471;-81
2023/10/02 12:43:47;;;;;;;1.77;1.67;;;25.50;86.90;;;;;;6256035;23;20385;-77
2023/10/02 12:46:15;;;;;;;1.40;1.40;;;25.60;86.20;;;;;;6256273;23;20402;-78
2023/10/02 12:48:46;;;;;;;1.67;1.57;;;25.70;86.20;;;;;;6256636;23;20372;-78
2023/10/02 12:51:14;;;;;;;1.53;1.43;;;25.70;84.60;;;;;;6254970;23;20607;-79
2023/10/02 12:53:49;;;;;;;0.90;0.90;;;25.70;84.70;;;;;;6254475;23;20364;-80
2023/10/02 12:56:19;;;;;;;1.87;1.77;;;25.90;85.30;;;;;;6254675;23;20455;-80
2023/10/02 12:58:48;;;;;;;1.70;1.60;;;25.80;84.60;;;;;;6254389;23;20400;-79
2023/10/02 13:01:17;;;;;;;1.70;1.60;;;25.90;85.00;;;;;;6253201;23;20439;-77
2023/10/02 13:03:46;;;;;;;2.30;2.10;;;26.00;83.20;;;;;;6253349;23;20393;-78
2023/10/02 13:06:13;;;;;;;1.73;1.63;;;26.10;84.50;;;;;;6252719;23;20460;-79
2023/10/02 13:08:44;;;;;;;1.53;1.43;;;26.20;85.30;;;;;;6252121;23;20401;-78
2023/10/02 13:11:13;;;;;;;1.20;1.20;;;26.10;86.00;;;;;;6252601;23;20379;-78
2023/10/02 13:13:44;;;;;;;0.90;0.90;;;25.90;85.80;;;;;;6252664;23;20439;-79
2023/10/02 13:16:13;;;;;;;1.00;1.00;;;25.80;85.50;;;;;;6226533;23;20386;-78
2023/10/02 13:18:43;;;;;;;2.70;2.60;;;25.70;85.50;;;;;;6254822;23;20577;-79
2023/10/02 13:21:14;;;;;;;0.93;0.93;;;25.70;86.40;;;;;;6253762;23;20425;-79
2023/10/02 13:23:41;;;;;;;1.77;1.67;;;25.70;86.00;;;;;;6254124;23;20491;-76
2023/10/02 13:26:11;;;;;;;1.27;1.27;;;25.70;85.10;;;;;;6254369;23;20395;-78
2023/10/02 13:28:38;;;;;;;1.47;1.37;;;25.70;85.50;;;;;;6255226;23;20388;-78
2023/10/02 13:31:14;;;;;;;0.90;0.90;;;25.70;84.50;;;;;;6255142;23;20376;-78
2023/10/02 13:33:47;;;;;;;1.00;1.00;;;25.60;86.10;;;;;;6255122;23;20435;-79
2023/10/02 13:36:14;;;;;;;8.17;3.67;;;25.70;87.00;;;;;;6254695;23;20488;-79
2023/10/02 13:38:41;;;;;;;0.90;0.90;;;25.70;86.40;;;;;;6256148;23;20767;-79
2023/10/02 13:41:11;;;;;;;2.30;2.10;;;25.70;87.40;;;;;;6254970;23;20414;-78
2023/10/02 13:43:43;;;;;;;2.30;1.10;;;25.70;87.70;;;;;;6255201;23;20479;-79
2023/10/02 13:46:14;;;;;;;1.03;1.03;;;25.70;87.10;;;;;;6255527;23;20384;-79
2023/10/02 13:48:42;;;;;;;0.93;0.93;;;25.60;86.70;;;;;;6255572;23;20384;-77
2023/10/02 13:51:12;;;;;;;2.70;2.50;;;25.50;87.70;;;;;;6255007;23;20403;-77
2023/10/02 13:53:43;;;;;;;1.10;1.10;;;25.50;88.30;;;;;;6255133;23;20404;-77
2023/10/02 13:56:16;;;;;;;1.73;1.63;;;25.50;88.50;;;;;;6255422;23;20405;-78
2023/10/02 13:58:49;;;;;;;1.07;1.07;;;25.60;86.90;;;;;;6255612;23;20373;-80
2023/10/02 14:01:21;;;;;;;1.67;1.10;;;25.80;87.80;;;;;;6228507;23;20435;-80